TimeEDT,TemperatureF,Dew PointF,Humidity,Sea Level PressureIn,VisibilityMPH,Wind Direction,Wind SpeedMPH,Gust SpeedMPH,PrecipitationIn,Events,Conditions,WindDirDegrees,DateUTC
12:54 AM,48.0,46.0,93,30.41,9.0,Calm,Calm,-,N/A,,Clear,0,2007-10-01 04:54:00
1:54 AM,46.9,45.0,93,30.40,10.0,Calm,Calm,-,N/A,,Clear,0,2007-10-01 05:54:00
2:54 AM,46.0,43.0,89,30.40,8.0,Calm,Calm,-,N/A,,Clear,0,2007-10-01 06:54:00
3:54 AM,44.1,42.1,93,30.40,4.0,Calm,Calm,-,N/A,,Clear,0,2007-10-01 07:54:00
4:26 AM,42.8,41.0,93,30.42,1.8,Calm,Calm,-,N/A,,Clear,0,2007-10-01 08:26:00
4:36 AM,42.8,41.0,93,30.42,1.2,Calm,Calm,-,N/A,,Clear,0,2007-10-01 08:36:00
4:42 AM,42.8,41.0,93,30.43,2.0,Calm,Calm,-,N/A,,Clear,0,2007-10-01 08:42:00
4:48 AM,42.8,41.0,93,30.43,1.2,Calm,Calm,-,N/A,,Clear,0,2007-10-01 08:48:00
4:54 AM,43.0,41.0,93,30.40,2.0,Calm,Calm,-,N/A,,Clear,0,2007-10-01 08:54:00
5:16 AM,42.8,41.0,93,30.43,5.0,Calm,Calm,-,N/A,,Clear,0,2007-10-01 09:16:00
5:54 AM,42.1,39.9,92,30.39,5.0,Calm,Calm,-,N/A,,Clear,0,2007-10-01 09:54:00
6:04 AM,42.8,39.2,87,30.43,1.5,Calm,Calm,-,N/A,,Clear,0,2007-10-01 10:04:00
6:06 AM,42.8,39.2,87,30.43,0.8,Calm,Calm,-,N/A,,Mist,0,2007-10-01 10:06:00
6:14 AM,42.8,39.2,87,30.43,1.2,Calm,Calm,-,N/A,,Partly Cloudy,0,2007-10-01 10:14:00
6:16 AM,42.8,39.2,87,30.43,2.5,Calm,Calm,-,N/A,,Clear,0,2007-10-01 10:16:00
6:23 AM,42.8,39.2,87,30.43,7.0,Calm,Calm,-,N/A,,Clear,0,2007-10-01 10:23:00
6:54 AM,42.1,39.0,89,30.41,10.0,Calm,Calm,-,N/A,,Clear,0,2007-10-01 10:54:00
7:54 AM,42.1,39.9,92,30.42,7.0,Calm,Calm,-,N/A,,Clear,0,2007-10-01 11:54:00
8:54 AM,46.9,44.1,90,30.44,10.0,Calm,Calm,-,N/A,,Clear,0,2007-10-01 12:54:00
9:54 AM,53.1,46.0,77,30.43,10.0,Calm,Calm,-,N/A,,Clear,0,2007-10-01 13:54:00
10:54 AM,60.1,48.0,64,30.42,10.0,SE,3.5,-,N/A,,Clear,140,2007-10-01 14:54:00
11:54 AM,66.0,50.0,56,30.40,10.0,Variable,4.6,-,N/A,,Clear,0,2007-10-01 15:54:00
12:54 PM,68.0,48.9,50,30.38,10.0,ESE,4.6,-,N/A,,Clear,120,2007-10-01 16:54:00
1:54 PM,71.1,48.0,44,30.35,10.0,South,9.2,-,N/A,,Clear,180,2007-10-01 17:54:00
2:54 PM,71.1,46.0,41,30.32,9.0,SSE,10.4,-,N/A,,Clear,160,2007-10-01 18:54:00
3:54 PM,72.0,46.9,41,30.30,10.0,South,9.2,-,N/A,,Clear,190,2007-10-01 19:54:00
4:54 PM,72.0,46.0,40,30.29,9.0,South,8.1,-,N/A,,Clear,180,2007-10-01 20:54:00
5:54 PM,71.1,48.0,44,30.28,10.0,SSE,9.2,-,N/A,,Clear,160,2007-10-01 21:54:00
6:54 PM,66.9,48.0,51,30.29,10.0,Calm,Calm,-,N/A,,Clear,0,2007-10-01 22:54:00
7:54 PM,63.0,51.1,65,30.30,10.0,Calm,Calm,-,N/A,,Clear,0,2007-10-01 23:54:00
8:54 PM,57.9,51.1,78,30.31,10.0,SW,3.5,-,N/A,,Clear,230,2007-10-02 00:54:00
9:54 PM,55.9,51.1,84,30.31,10.0,Calm,Calm,-,N/A,,Clear,0,2007-10-02 01:54:00
10:54 PM,54.0,51.1,90,30.30,10.0,Calm,Calm,-,N/A,,Clear,0,2007-10-02 02:54:00
11:54 PM,53.1,50.0,89,30.29,10.0,Calm,Calm,-,N/A,,Clear,0,2007-10-02 03:54:00